Time;durP1;ratioP1;P1;durP2;ratioP2;P2;SDS_P1;SDS_P2;PMS_P1;PMS_P2;Temp;Humidity;BMP_temperature;BMP_pressure;BME280_temperature;BME280_humidity;BME280_pressure;Samples;Min_cycle;Max_cycle;Signal;HPM_P1;HPM_P2
2022/10/28 00:01:02;;;;;;;10.10;4.30;;;10.90;68.00;;;;;;4965790;28;46453;-68
2022/10/28 00:03:27;;;;;;;11.67;4.50;;;11.00;69.10;;;;;;4982029;28;46437;-68
2022/10/28 00:05:53;;;;;;;11.73;3.80;;;11.00;69.10;;;;;;4961583;28;46445;-68
2022/10/28 00:08:19;;;;;;;9.30;4.20;;;11.10;69.30;;;;;;4981517;28;46484;-67
2022/10/28 00:10:44;;;;;;;10.17;3.93;;;11.10;68.30;;;;;;4964653;28;46530;-68
2022/10/28 00:13:10;;;;;;;11.03;4.00;;;11.20;69.40;;;;;;4982704;28;48223;-68
2022/10/28 00:15:36;;;;;;;9.87;3.70;;;11.20;69.50;;;;;;4981877;28;45854;-68
2022/10/28 00:18:01;;;;;;;8.30;3.57;;;11.20;69.50;;;;;;4981301;28;46313;-68
2022/10/28 00:20:29;;;;;;;9.00;3.30;;;11.30;68.50;;;;;;4981939;28;46430;-67
2022/10/28 00:22:55;;;;;;;7.60;3.87;;;11.20;69.40;;;;;;4965182;28;47354;-68
2022/10/28 00:25:23;;;;;;;11.40;3.90;;;11.30;69.50;;;;;;4965533;28;46514;-67
2022/10/28 00:27:50;;;;;;;8.90;3.87;;;11.20;69.60;;;;;;4981861;28;46480;-67
2022/10/28 00:30:16;;;;;;;6.40;3.33;;;11.10;68.50;;;;;;4967118;28;46320;-67
2022/10/28 00:32:42;;;;;;;6.60;3.40;;;11.10;69.50;;;;;;4965428;28;46624;-68
2022/10/28 00:35:08;;;;;;;8.93;3.03;;;11.00;69.60;;;;;;4966400;28;46446;-67
2022/10/28 00:37:33;;;;;;;9.47;3.63;;;10.90;69.60;;;;;;4965892;28;45950;-68
2022/10/28 00:39:59;;;;;;;12.23;3.37;;;10.90;68.70;;;;;;4963049;28;45937;-67
2022/10/28 00:42:25;;;;;;;6.43;2.97;;;10.80;69.60;;;;;;4981010;28;46536;-67
2022/10/28 00:44:57;;;;;;;8.70;4.03;;;10.80;69.50;;;;;;4964246;28;46484;-68
2022/10/28 00:47:55;;;;;;;9.40;3.43;;;10.70;69.50;;;;;;4959113;28;46444;-67
2022/10/28 00:50:42;;;;;;;8.17;3.50;;;10.80;68.60;;;;;;4964084;28;46465;-68
2022/10/28 00:53:20;;;;;;;9.37;4.00;;;10.80;69.40;;;;;;4961986;28;48022;-67
2022/10/28 00:55:47;;;;;;;14.23;3.60;;;10.80;69.40;;;;;;4965893;28;46350;-67
2022/10/28 00:58:14;;;;;;;8.63;3.77;;;10.80;69.20;;;;;;4965372;28;46461;-68
2022/10/28 01:00:40;;;;;;;10.60;3.20;;;10.90;68.20;;;;;;4981440;28;46421;-68
2022/10/28 01:03:05;;;;;;;7.77;3.60;;;10.90;69.20;;;;;;4962561;28;46767;-68
2022/10/28 01:05:34;;;;;;;5.80;3.40;;;10.90;69.20;;;;;;4963353;28;46468;-68
2022/10/28 01:08:02;;;;;;;10.20;3.50;;;10.90;69.20;;;;;;4960030;28;46424;-68
2022/10/28 01:10:35;;;;;;;6.33;3.23;;;10.80;68.20;;;;;;4959016;28;46354;-68
2022/10/28 01:13:27;;;;;;;5.33;2.90;;;10.80;69.40;;;;;;4983778;28;47826;-68
2022/10/28 01:15:53;;;;;;;7.50;3.10;;;10.70;69.40;;;;;;4982682;28;46364;-68
2022/10/28 01:18:54;;;;;;;6.10;2.67;;;10.70;69.40;;;;;;4965385;28;45819;-68
2022/10/28 01:21:28;;;;;;;12.87;4.40;;;10.60;68.60;;;;;;4961767;28;46385;-67
2022/10/28 01:24:02;;;;;;;11.20;2.80;;;10.40;69.80;;;;;;4963935;28;46713;-67
2022/10/28 01:26:40;;;;;;;7.70;3.33;;;10.40;70.00;;;;;;4979081;28;46305;-68
2022/10/28 01:29:25;;;;;;;13.00;3.50;;;10.30;69.00;;;;;;4980958;28;46116;-68
2022/10/28 01:32:24;;;;;;;8.17;3.10;;;10.30;69.80;;;;;;4966565;28;47072;-68
2022/10/28 01:34:56;;;;;;;8.10;4.30;;;10.30;69.60;;;;;;4980953;28;46317;-68
2022/10/28 01:37:36;;;;;;;10.07;3.13;;;10.20;69.40;;;;;;4963909;28;46517;-67
2022/10/28 01:40:16;;;;;;;8.30;3.57;;;10.30;68.30;;;;;;4961864;28;46408;-67
2022/10/28 01:43:08;;;;;;;14.70;4.30;;;10.30;69.30;;;;;;4962798;28;46604;-67
2022/10/28 01:45:48;;;;;;;8.77;3.57;;;10.30;69.00;;;;;;4940742;28;46688;-67
2022/10/28 01:48:30;;;;;;;11.27;3.50;;;10.30;68.70;;;;;;4963450;28;46818;-68
2022/10/28 01:51:04;;;;;;;5.60;2.97;;;10.40;67.50;;;;;;4980257;28;46817;-68
2022/10/28 01:53:35;;;;;;;11.97;3.30;;;10.40;68.50;;;;;;4980408;28;46460;-68
2022/10/28 01:56:06;;;;;;;16.87;3.70;;;10.40;68.70;;;;;;4960266;28;47876;-68
2022/10/28 01:58:34;;;;;;;6.60;3.40;;;10.40;68.80;;;;;;4953333;28;46465;-68
2022/10/28 02:01:03;;;;;;;8.73;3.50;;;10.30;67.70;;;;;;4962159;28;46418;-68
2022/10/28 02:03:30;;;;;;;8.27;3.10;;;10.30;68.70;;;;;;4981920;28;46478;-68
2022/10/28 02:05:57;;;;;;;10.97;3.80;;;10.40;68.80;;;;;;4981047;28;47222;-68
2022/10/28 02:08:52;;;;;;;6.43;3.50;;;10.40;68.80;;;;;;4958840;28;46485;-67
2022/10/28 02:11:29;;;;;;;12.20;3.43;;;10.30;67.70;;;;;;4863195;28;46442;-67
2022/10/28 02:14:10;;;;;;;11.20;4.10;;;10.30;68.80;;;;;;4964643;28;46369;-67
2022/10/28 02:17:02;;;;;;;11.03;3.00;;;10.30;68.80;;;;;;4964199;28;47952;-67
2022/10/28 02:19:43;;;;;;;11.23;3.30;;;10.40;68.00;;;;;;4981049;28;46218;-68
2022/10/28 02:22:26;;;;;;;12.70;2.80;;;10.40;69.00;;;;;;4964620;28;46515;-68
2022/10/28 02:25:03;;;;;;;4.57;2.70;;;10.40;68.80;;;;;;4957333;28;46115;-68
2022/10/28 02:27:41;;;;;;;8.20;3.30;;;10.50;68.80;;;;;;4962234;28;48077;-67
2022/10/28 02:30:28;;;;;;;9.40;3.07;;;10.50;67.80;;;;;;4962108;28;46288;-67
2022/10/28 02:32:59;;;;;;;8.17;3.23;;;10.50;68.80;;;;;;4962929;28;46610;-67
2022/10/28 02:35:37;;;;;;;6.10;3.40;;;10.50;68.60;;;;;;4959535;28;46572;-67
2022/10/28 02:38:09;;;;;;;4.17;2.50;;;10.50;68.80;;;;;;4963711;28;46556;-68
2022/10/28 02:40:38;;;;;;;8.13;3.83;;;10.40;67.90;;;;;;4980139;28;45806;-67
2022/10/28 02:43:08;;;;;;;7.13;2.40;;;10.20;69.10;;;;;;4963858;28;46424;-67
2022/10/28 02:45:47;;;;;;;3.97;2.67;;;10.10;69.50;;;;;;4963292;28;46095;-68
2022/10/28 02:48:25;;;;;;;4.90;2.40;;;10.00;69.60;;;;;;4953955;28;47968;-67
2022/10/28 02:51:09;;;;;;;5.87;3.00;;;9.90;69.40;;;;;;4963253;28;46445;-67
2022/10/28 02:53:58;;;;;;;8.17;2.70;;;9.90;70.50;;;;;;4982400;28;46160;-67
2022/10/28 02:56:23;;;;;;;6.17;2.53;;;9.90;70.40;;;;;;4927716;28;45943;-67
2022/10/28 02:58:49;;;;;;;11.13;2.77;;;9.90;70.20;;;;;;4965764;28;47882;-67
2022/10/28 03:01:15;;;;;;;7.00;2.60;;;9.90;69.10;;;;;;4984926;28;46385;-67
2022/10/28 03:03:41;;;;;;;12.67;2.70;;;9.90;70.10;;;;;;4965793;28;46346;-66
2022/10/28 03:06:07;;;;;;;8.53;2.73;;;9.90;70.10;;;;;;4983306;28;46571;-67
2022/10/28 03:08:33;;;;;;;4.30;2.70;;;9.70;71.10;;;;;;4984282;28;46668;-67
2022/10/28 03:10:59;;;;;;;8.03;3.97;;;9.80;69.10;;;;;;4982146;28;46509;-67
2022/10/28 03:13:24;;;;;;;8.23;2.70;;;9.70;70.20;;;;;;4967111;28;46464;-67
2022/10/28 03:15:50;;;;;;;8.03;2.83;;;9.70;69.20;;;;;;4982337;28;46619;-67
2022/10/28 03:18:16;;;;;;;4.90;3.00;;;9.70;70.20;;;;;;4966835;28;48108;-67
2022/10/28 03:20:41;;;;;;;8.23;3.03;;;9.70;69.10;;;;;;4982335;28;46442;-67
2022/10/28 03:23:07;;;;;;;11.40;3.00;;;9.70;70.10;;;;;;4983162;28;46001;-67
2022/10/28 03:25:33;;;;;;;7.50;3.53;;;9.80;69.90;;;;;;4982783;28;46494;-67
2022/10/28 03:27:58;;;;;;;4.87;2.77;;;9.90;69.70;;;;;;4984379;28;46312;-67
2022/10/28 03:30:24;;;;;;;8.90;3.20;;;9.90;68.60;;;;;;4984239;28;45806;-67
2022/10/28 03:32:49;;;;;;;5.37;2.60;;;9.90;69.50;;;;;;4966888;28;46511;-67
2022/10/28 03:35:15;;;;;;;8.57;2.80;;;10.00;68.50;;;;;;4983088;28;45836;-67
2022/10/28 03:37:42;;;;;;;6.73;2.63;;;10.00;68.30;;;;;;4983327;28;46421;-67
2022/10/28 03:40:09;;;;;;;5.40;2.23;;;10.10;67.70;;;;;;4982874;28;46312;-67
2022/10/28 03:42:35;;;;;;;5.13;2.50;;;10.10;68.30;;;;;;4965744;28;46022;-67
2022/10/28 03:45:00;;;;;;;20.73;2.37;;;10.10;68.50;;;;;;4965573;28;45866;-67
2022/10/28 03:47:26;;;;;;;4.90;2.90;;;10.10;68.50;;;;;;4982175;28;46598;-67
2022/10/28 03:49:51;;;;;;;8.40;2.90;;;10.10;67.50;;;;;;4982899;28;46424;-67
2022/10/28 03:52:18;;;;;;;11.33;2.93;;;9.90;69.30;;;;;;4978879;28;46322;-67
2022/10/28 03:54:44;;;;;;;10.03;3.43;;;10.10;68.40;;;;;;4965911;28;46035;-67
2022/10/28 03:57:09;;;;;;;14.93;3.57;;;10.10;68.40;;;;;;4982018;28;48276;-67
2022/10/28 03:59:35;;;;;;;4.40;2.67;;;10.20;67.60;;;;;;4983155;28;46456;-68
2022/10/28 04:02:00;;;;;;;8.63;2.40;;;10.10;67.30;;;;;;4981902;28;46402;-67
2022/10/28 04:04:26;;;;;;;7.07;2.10;;;10.10;68.50;;;;;;4981152;28;46424;-67
2022/10/28 04:06:52;;;;;;;5.50;2.10;;;9.90;70.00;;;;;;4981978;28;48947;-67
2022/10/28 04:09:17;;;;;;;6.23;2.70;;;9.70;69.60;;;;;;4957206;28;46401;-67
2022/10/28 04:11:46;;;;;;;5.90;2.57;;;9.60;70.50;;;;;;4966029;28;45816;-68
2022/10/28 04:14:11;;;;;;;7.90;2.60;;;9.60;70.70;;;;;;4982890;28;46335;-68
2022/10/28 04:16:37;;;;;;;9.87;2.53;;;9.50;70.50;;;;;;4984268;28;49076;-68
2022/10/28 04:19:03;;;;;;;5.70;2.17;;;9.40;69.90;;;;;;4983416;28;46560;-68
2022/10/28 04:21:28;;;;;;;6.83;2.43;;;9.40;70.60;;;;;;4983092;28;46411;-67
2022/10/28 04:23:54;;;;;;;7.17;2.47;;;9.30;70.50;;;;;;4966025;28;46381;-67
2022/10/28 04:26:20;;;;;;;6.20;2.20;;;9.30;70.50;;;;;;4966061;28;46841;-67
2022/10/28 04:28:45;;;;;;;11.00;2.90;;;9.30;70.50;;;;;;4982000;28;46467;-67
2022/10/28 04:31:11;;;;;;;12.33;3.10;;;9.40;69.20;;;;;;4982423;28;46239;-67
2022/10/28 04:33:37;;;;;;;6.47;3.10;;;9.50;70.00;;;;;;4981365;28;46223;-67
2022/10/28 04:36:03;;;;;;;10.07;2.63;;;9.60;69.90;;;;;;4981888;28;47397;-68
2022/10/28 04:38:28;;;;;;;9.93;3.30;;;9.80;69.80;;;;;;4979083;28;46360;-68
2022/10/28 04:40:54;;;;;;;29.57;11.20;;;9.90;68.70;;;;;;4968428;28;46373;-68
2022/10/28 04:43:20;;;;;;;25.03;10.70;;;10.00;68.80;;;;;;4966585;28;46433;-68
2022/10/28 04:45:46;;;;;;;12.60;4.37;;;10.10;68.80;;;;;;4965068;28;49134;-68
2022/10/28 04:48:11;;;;;;;12.33;3.07;;;10.20;68.90;;;;;;4965539;28;46322;-67
2022/10/28 04:50:37;;;;;;;8.70;3.13;;;10.20;68.10;;;;;;4981527;28;46284;-68
2022/10/28 04:53:03;;;;;;;5.50;2.40;;;10.20;69.10;;;;;;4984134;28;46141;-68
2022/10/28 04:55:28;;;;;;;9.40;2.60;;;10.20;69.10;;;;;;4964493;28;47854;-68
2022/10/28 04:57:59;;;;;;;7.70;2.73;;;10.20;69.20;;;;;;4981830;28;46468;-68
2022/10/28 05:00:27;;;;;;;8.90;3.43;;;10.20;68.00;;;;;;4964128;28;46394;-68
2022/10/28 05:02:53;;;;;;;5.57;3.10;;;10.30;69.10;;;;;;4981749;28;46361;-68
2022/10/28 05:05:19;;;;;;;3.50;1.93;;;10.20;69.00;;;;;;4981436;28;48260;-67
2022/10/28 05:07:45;;;;;;;8.40;3.77;;;10.20;69.20;;;;;;4962430;28;46425;-67
2022/10/28 05:10:14;;;;;;;8.77;5.50;;;10.00;68.20;;;;;;4980772;28;46586;-68
2022/10/28 05:12:44;;;;;;;17.50;4.80;;;10.00;69.20;;;;;;4981665;28;45957;-67
2022/10/28 05:15:11;;;;;;;14.60;5.10;;;9.90;70.20;;;;;;4962931;28;46430;-68
2022/10/28 05:17:44;;;;;;;6.13;3.67;;;9.90;70.50;;;;;;4981732;28;46612;-67
2022/10/28 05:20:10;;;;;;;7.60;3.30;;;9.80;69.70;;;;;;4964180;28;45891;-67
2022/10/28 05:22:36;;;;;;;12.97;4.93;;;9.80;70.70;;;;;;4981653;28;46303;-67
2022/10/28 05:25:03;;;;;;;7.37;3.37;;;9.70;70.60;;;;;;4964632;28;46561;-67
2022/10/28 05:27:28;;;;;;;8.13;2.93;;;9.70;70.50;;;;;;4965181;28;46355;-67
2022/10/28 05:29:54;;;;;;;9.10;3.97;;;9.60;69.60;;;;;;4979908;28;46431;-67
2022/10/28 05:32:20;;;;;;;10.60;4.40;;;9.60;70.80;;;;;;4967052;28;46879;-67
2022/10/28 05:34:45;;;;;;;12.67;4.63;;;9.50;70.70;;;;;;4983675;28;47565;-67
2022/10/28 05:37:11;;;;;;;15.00;4.77;;;9.50;70.70;;;;;;4982247;28;46409;-67
2022/10/28 05:39:37;;;;;;;8.03;3.80;;;9.50;69.90;;;;;;4982535;28;46467;-67
2022/10/28 05:42:03;;;;;;;9.50;4.33;;;9.50;70.90;;;;;;4966381;28;46520;-67
2022/10/28 05:44:28;;;;;;;10.27;3.97;;;9.50;70.90;;;;;;4982595;28;48050;-67
2022/10/28 05:46:55;;;;;;;6.93;3.53;;;9.50;70.90;;;;;;4966917;28;46382;-67
2022/10/28 05:49:21;;;;;;;12.83;4.03;;;9.50;69.90;;;;;;4979206;28;46290;-67
2022/10/28 05:51:47;;;;;;;9.27;5.10;;;9.50;70.80;;;;;;4981621;28;46525;-67
2022/10/28 05:54:12;;;;;;;7.83;3.17;;;9.60;70.70;;;;;;4980365;28;48123;-67
2022/10/28 05:56:38;;;;;;;8.30;3.97;;;9.60;69.50;;;;;;4964562;28;46386;-67
2022/10/28 05:59:04;;;;;;;14.77;6.93;;;9.60;69.50;;;;;;4980887;28;46594;-67
2022/10/28 06:01:29;;;;;;;18.83;6.80;;;9.60;70.40;;;;;;4980533;28;46655;-67
2022/10/28 06:03:55;;;;;;;14.53;4.67;;;9.60;70.20;;;;;;4982054;28;46619;-67
2022/10/28 06:06:21;;;;;;;5.40;2.67;;;9.70;70.20;;;;;;4981940;28;45934;-67
2022/10/28 06:08:47;;;;;;;6.80;3.60;;;9.70;70.00;;;;;;4983032;28;46511;-67
2022/10/28 06:11:12;;;;;;;8.43;3.80;;;9.70;69.20;;;;;;4981751;28;46582;-67
2022/10/28 06:13:39;;;;;;;9.00;3.37;;;9.70;70.40;;;;;;4963393;28;47194;-67
2022/10/28 06:16:05;;;;;;;5.43;3.07;;;9.70;70.40;;;;;;4980510;28;46515;-67
2022/10/28 06:18:31;;;;;;;4.83;2.37;;;9.80;70.30;;;;;;4964193;28;46265;-67
2022/10/28 06:20:58;;;;;;;4.03;2.10;;;9.90;69.20;;;;;;4964465;28;46407;-67
2022/10/28 06:23:25;;;;;;;7.37;2.53;;;9.90;70.00;;;;;;4982799;28;47884;-67
2022/10/28 06:25:59;;;;;;;12.60;3.33;;;10.10;68.80;;;;;;4979753;28;46427;-67
2022/10/28 06:28:25;;;;;;;8.03;3.30;;;10.20;68.40;;;;;;4978781;28;46436;-67
2022/10/28 06:30:51;;;;;;;8.43;2.00;;;10.40;66.90;;;;;;4981512;28;46697;-67
2022/10/28 06:33:16;;;;;;;5.60;2.40;;;10.50;67.70;;;;;;4962592;28;47197;-67
2022/10/28 06:35:42;;;;;;;5.87;2.13;;;10.60;67.40;;;;;;4964354;28;46423;-67
2022/10/28 06:38:08;;;;;;;8.80;3.10;;;10.70;67.30;;;;;;4963999;28;46564;-67
2022/10/28 06:40:34;;;;;;;18.03;8.00;;;10.70;66.20;;;;;;4978663;28;46472;-69
2022/10/28 06:43:02;;;;;;;14.90;5.80;;;10.80;67.30;;;;;;4962064;28;48001;-69
2022/10/28 06:45:30;;;;;;;7.87;3.90;;;11.00;66.80;;;;;;4963110;28;46411;-69
2022/10/28 06:48:02;;;;;;;5.80;2.50;;;11.20;66.30;;;;;;4963004;28;46262;-70
2022/10/28 06:50:28;;;;;;;10.43;2.97;;;11.40;64.70;;;;;;4956543;28;46453;-68
2022/10/28 06:52:58;;;;;;;5.37;3.40;;;11.50;65.80;;;;;;4962004;28;47246;-68
2022/10/28 06:55:24;;;;;;;8.37;3.40;;;11.70;66.00;;;;;;4962537;28;46512;-68
2022/10/28 06:57:50;;;;;;;12.53;3.70;;;11.90;65.60;;;;;;4964146;28;46394;-68
2022/10/28 07:00:16;;;;;;;12.03;4.30;;;12.20;63.90;;;;;;4981270;28;46367;-68
2022/10/28 07:02:42;;;;;;;10.53;4.00;;;12.30;64.80;;;;;;4962926;28;48083;-68
2022/10/28 07:05:08;;;;;;;6.97;3.40;;;12.50;64.40;;;;;;4964743;28;46294;-68
2022/10/28 07:07:38;;;;;;;5.30;2.50;;;12.70;64.20;;;;;;4980374;28;46365;-68
2022/10/28 07:10:05;;;;;;;7.80;2.80;;;12.90;62.90;;;;;;4962931;28;46444;-70
2022/10/28 07:12:31;;;;;;;8.30;2.90;;;12.80;64.10;;;;;;4979664;28;48139;-69
2022/10/28 07:14:56;;;;;;;6.60;2.50;;;12.80;64.50;;;;;;4979946;28;46716;-69
2022/10/28 07:17:22;;;;;;;5.70;2.33;;;12.90;64.70;;;;;;4978832;28;46297;-68
2022/10/28 07:19:48;;;;;;;9.07;3.10;;;13.10;63.70;;;;;;4978404;28;46663;-69
2022/10/28 07:22:13;;;;;;;5.53;2.67;;;13.10;64.70;;;;;;4979013;28;47825;-68
2022/10/28 07:24:39;;;;;;;8.77;3.10;;;13.20;64.40;;;;;;4980291;28;46340;-68
2022/10/28 07:27:05;;;;;;;4.07;2.30;;;13.40;64.00;;;;;;4980970;28;46454;-70
2022/10/28 07:29:30;;;;;;;9.67;2.80;;;13.70;62.10;;;;;;4979281;28;46417;-68
2022/10/28 07:31:56;;;;;;;6.20;3.00;;;13.70;63.10;;;;;;4979288;28;48465;-68
2022/10/28 07:34:22;;;;;;;7.87;2.63;;;13.80;62.80;;;;;;4962874;28;46492;-68
2022/10/28 07:36:52;;;;;;;10.40;2.90;;;14.00;62.60;;;;;;4978716;28;46436;-68
2022/10/28 07:39:18;;;;;;;8.57;2.43;;;14.20;61.10;;;;;;4979364;28;46482;-70
2022/10/28 07:41:44;;;;;;;10.80;2.77;;;14.20;62.10;;;;;;4982610;28;48064;-70
2022/10/28 07:44:10;;;;;;;5.10;2.63;;;14.30;61.90;;;;;;4983004;28;46397;-68
2022/10/28 07:46:36;;;;;;;6.90;2.50;;;14.40;61.80;;;;;;4966672;28;46461;-68
2022/10/28 07:49:02;;;;;;;6.73;2.80;;;14.50;60.50;;;;;;4982487;28;46365;-69
2022/10/28 07:51:27;;;;;;;7.97;2.40;;;14.50;61.50;;;;;;4983293;28;47777;-68
2022/10/28 07:53:55;;;;;;;9.80;2.30;;;14.60;61.50;;;;;;4965784;28;46548;-70
2022/10/28 07:56:21;;;;;;;7.80;1.90;;;14.60;61.40;;;;;;4982875;28;46454;-68
2022/10/28 07:58:46;;;;;;;7.17;2.47;;;14.70;61.20;;;;;;4982761;28;46966;-68
2022/10/28 08:01:14;;;;;;;6.47;1.80;;;14.90;59.90;;;;;;4982005;28;48980;-68
2022/10/28 08:03:39;;;;;;;6.30;2.40;;;15.00;60.70;;;;;;4964820;28;46365;-68
2022/10/28 08:06:19;;;;;;;7.50;1.83;;;15.10;60.20;;;;;;4966296;28;46332;-69
2022/10/28 08:08:47;;;;;;;5.83;2.60;;;15.20;60.00;;;;;;4983603;28;46493;-68
2022/10/28 08:11:19;;;;;;;10.80;2.50;;;15.40;58.70;;;;;;4964456;28;49074;-69
2022/10/28 08:13:45;;;;;;;5.50;2.27;;;15.50;59.60;;;;;;4965789;28;46517;-68
2022/10/28 08:16:11;;;;;;;5.80;2.33;;;15.60;59.50;;;;;;4981978;28;45770;-69
2022/10/28 08:18:37;;;;;;;6.63;2.60;;;15.70;59.30;;;;;;4966133;28;45924;-69
2022/10/28 08:21:05;;;;;;;10.60;2.63;;;15.80;57.90;;;;;;4981805;28;47330;-69
2022/10/28 08:23:30;;;;;;;6.73;2.90;;;15.90;57.80;;;;;;4983426;28;45780;-69
2022/10/28 08:25:56;;;;;;;8.77;2.50;;;15.80;59.20;;;;;;4981524;28;46606;-69
2022/10/28 08:28:22;;;;;;;6.07;2.30;;;15.80;59.40;;;;;;4965686;28;46616;-69
2022/10/28 08:30:49;;;;;;;9.30;2.70;;;15.90;58.70;;;;;;4980073;28;47140;-67
2022/10/28 08:33:15;;;;;;;13.83;2.77;;;15.80;59.80;;;;;;4964836;28;46435;-68
2022/10/28 08:35:41;;;;;;;5.60;2.13;;;15.80;59.90;;;;;;4965280;28;46455;-69
2022/10/28 08:38:07;;;;;;;4.63;1.97;;;15.80;60.20;;;;;;4981897;28;46361;-69
2022/10/28 08:40:48;;;;;;;8.77;2.23;;;15.80;59.50;;;;;;4981474;28;48761;-70
2022/10/28 08:43:41;;;;;;;7.13;2.53;;;15.80;60.70;;;;;;4958294;28;46533;-69
2022/10/28 08:46:19;;;;;;;6.20;2.33;;;15.80;60.20;;;;;;4965348;28;46600;-69
2022/10/28 08:48:44;;;;;;;15.60;2.50;;;16.00;60.00;;;;;;4980748;28;46415;-67
2022/10/28 08:51:16;;;;;;;5.87;2.60;;;16.10;58.20;;;;;;4983120;28;46456;-69
2022/10/28 08:53:55;;;;;;;5.20;2.23;;;16.30;58.90;;;;;;4964954;28;46390;-70
2022/10/28 08:56:29;;;;;;;8.83;2.10;;;16.40;58.00;;;;;;4981826;28;46429;-69
2022/10/28 08:58:59;;;;;;;8.30;2.47;;;16.60;57.70;;;;;;4965132;28;46516;-69
2022/10/28 09:01:56;;;;;;;7.33;2.07;;;16.70;56.70;;;;;;4982590;28;47843;-69
2022/10/28 09:04:44;;;;;;;4.93;2.30;;;16.90;57.20;;;;;;4974115;28;46336;-68
2022/10/28 09:07:20;;;;;;;13.50;2.27;;;17.10;56.60;;;;;;4982863;28;46622;-68
2022/10/28 09:09:47;;;;;;;8.93;2.23;;;17.30;55.00;;;;;;4980203;28;46501;-69
2022/10/28 09:12:54;;;;;;;7.40;2.17;;;17.30;56.10;;;;;;4964759;28;46554;-70
2022/10/28 09:15:26;;;;;;;9.20;2.17;;;17.50;55.30;;;;;;4862523;29;46485;-69
2022/10/28 09:17:57;;;;;;;8.17;2.17;;;17.80;54.50;;;;;;4886383;29;46417;-70
2022/10/28 09:20:31;;;;;;;4.53;2.13;;;18.10;52.70;;;;;;4919674;28;46380;-69
2022/10/28 09:23:26;;;;;;;7.40;2.27;;;18.20;53.70;;;;;;4980910;28;46442;-69
2022/10/28 09:26:27;;;;;;;9.60;2.40;;;18.40;53.20;;;;;;4964779;28;46377;-70
2022/10/28 09:29:02;;;;;;;6.10;1.97;;;18.80;51.50;;;;;;4947371;28;46689;-69
2022/10/28 09:31:28;;;;;;;6.93;2.00;;;18.70;52.30;;;;;;4967676;28;46513;-69
2022/10/28 09:34:13;;;;;;;8.50;2.30;;;18.90;52.20;;;;;;4966872;28;47835;-69
2022/10/28 09:36:44;;;;;;;7.60;2.20;;;19.00;51.50;;;;;;4958772;28;46255;-70
2022/10/28 09:39:17;;;;;;;6.93;2.47;;;19.20;50.90;;;;;;4963944;28;46405;-69
2022/10/28 09:41:45;;;;;;;9.67;2.90;;;19.20;51.50;;;;;;4965145;28;46329;-68
2022/10/28 09:44:24;;;;;;;9.90;2.27;;;19.30;51.20;;;;;;4964412;28;47292;-68
2022/10/28 09:46:54;;;;;;;7.43;2.60;;;19.30;51.10;;;;;;4980643;28;46617;-69
2022/10/28 09:49:35;;;;;;;7.30;2.30;;;19.60;49.90;;;;;;4980206;28;46390;-68
2022/10/28 09:52:07;;;;;;;8.30;2.43;;;19.70;50.70;;;;;;4965718;28;46575;-69
2022/10/28 09:54:45;;;;;;;6.17;2.17;;;19.90;50.50;;;;;;4963106;28;46555;-68
2022/10/28 09:57:11;;;;;;;11.80;2.70;;;20.00;50.20;;;;;;4956502;28;46514;-68
2022/10/28 09:59:37;;;;;;;9.17;2.40;;;20.20;49.00;;;;;;4961478;28;46336;-68
2022/10/28 10:02:03;;;;;;;15.73;2.47;;;20.20;50.00;;;;;;4981722;28;46767;-68
2022/10/28 10:04:32;;;;;;;6.93;2.50;;;20.20;49.80;;;;;;4980107;28;49045;-68
2022/10/28 10:07:06;;;;;;;13.57;3.07;;;20.30;49.50;;;;;;4963167;28;46510;-68
2022/10/28 10:09:34;;;;;;;10.53;2.50;;;20.50;47.90;;;;;;4979163;28;46677;-68
2022/10/28 10:12:11;;;;;;;10.07;2.60;;;20.50;48.80;;;;;;4981260;28;46392;-68
2022/10/28 10:14:47;;;;;;;5.20;1.97;;;20.60;48.30;;;;;;4980230;28;46537;-68
2022/10/28 10:17:43;;;;;;;5.97;2.20;;;20.70;48.30;;;;;;4961352;28;46469;-68
2022/10/28 10:20:13;;;;;;;4.83;2.03;;;20.80;47.30;;;;;;4979944;28;46469;-68
2022/10/28 10:22:44;;;;;;;5.77;2.10;;;20.90;48.50;;;;;;4979360;28;46450;-68
2022/10/28 10:25:24;;;;;;;13.60;3.07;;;20.90;48.00;;;;;;4962617;28;47692;-68
2022/10/28 10:28:03;;;;;;;7.63;2.17;;;20.90;47.50;;;;;;4963468;28;46177;-68
2022/10/28 10:30:39;;;;;;;8.83;2.27;;;21.10;46.70;;;;;;4980247;28;46461;-68
2022/10/28 10:33:13;;;;;;;5.77;2.57;;;21.20;47.60;;;;;;4963307;28;46438;-68
2022/10/28 10:35:40;;;;;;;12.60;2.43;;;21.40;47.10;;;;;;4962586;28;49214;-68
2022/10/28 10:38:06;;;;;;;9.17;2.30;;;21.60;46.60;;;;;;4963463;28;46610;-68
2022/10/28 10:40:51;;;;;;;5.37;2.20;;;21.80;44.60;;;;;;4979326;28;46436;-68
2022/10/28 10:43:17;;;;;;;9.53;2.53;;;21.90;45.00;;;;;;4957656;28;46324;-68
2022/10/28 10:46:03;;;;;;;8.17;2.60;;;22.10;45.00;;;;;;4964357;28;47655;-68
2022/10/28 10:48:31;;;;;;;8.33;2.77;;;22.20;44.40;;;;;;4982255;28;46353;-68
2022/10/28 10:51:03;;;;;;;7.77;2.50;;;22.20;43.00;;;;;;4957706;28;47297;-68
2022/10/28 10:53:31;;;;;;;6.23;2.13;;;22.30;44.40;;;;;;4979492;28;46385;-68
2022/10/28 10:56:09;;;;;;;14.00;2.20;;;22.20;44.90;;;;;;4978834;28;47516;-68
2022/10/28 10:58:47;;;;;;;6.93;2.27;;;22.00;45.50;;;;;;4962217;28;46861;-68
2022/10/28 11:01:27;;;;;;;5.60;1.93;;;21.90;45.00;;;;;;4980483;28;46436;-68
2022/10/28 11:04:00;;;;;;;16.93;5.60;;;22.10;46.10;;;;;;4981060;28;45887;-68
2022/10/28 11:06:37;;;;;;;6.20;3.03;;;22.20;45.60;;;;;;4963644;28;48402;-68
2022/10/28 11:09:06;;;;;;;15.20;3.60;;;22.40;43.80;;;;;;4961719;28;46290;-68
2022/10/28 11:11:34;;;;;;;11.27;2.60;;;22.40;44.60;;;;;;4980212;28;46417;-68
2022/10/28 11:14:09;;;;;;;16.10;2.17;;;22.60;43.80;;;;;;4961855;28;46626;-68
2022/10/28 11:16:49;;;;;;;11.43;2.63;;;22.60;43.10;;;;;;4967607;28;48762;-68
2022/10/28 11:19:36;;;;;;;8.50;2.53;;;22.60;42.70;;;;;;4966218;28;46649;-68
2022/10/28 11:22:41;;;;;;;10.13;2.20;;;22.50;43.20;;;;;;4966315;28;46378;-68
2022/10/28 11:25:42;;;;;;;9.30;2.00;;;22.30;43.60;;;;;;4966819;28;46387;-68
2022/10/28 11:28:27;;;;;;;14.80;3.10;;;22.40;44.00;;;;;;4963642;28;47676;-68
2022/10/28 11:30:55;;;;;;;8.20;2.30;;;22.40;43.00;;;;;;4967211;28;46454;-68
2022/10/28 11:33:43;;;;;;;8.93;2.60;;;22.50;44.30;;;;;;4966232;28;46430;-68
2022/10/28 11:36:21;;;;;;;8.03;2.20;;;22.40;44.30;;;;;;4966855;28;46716;-68
2022/10/28 11:39:00;;;;;;;20.47;3.70;;;22.40;43.40;;;;;;4985868;28;47868;-68
2022/10/28 11:41:39;;;;;;;12.10;2.67;;;22.30;44.50;;;;;;4967345;28;45845;-68
2022/10/28 11:44:43;;;;;;;21.30;3.40;;;22.20;45.00;;;;;;4983581;28;46407;-68
2022/10/28 11:47:28;;;;;;;10.40;3.00;;;22.10;45.30;;;;;;4968493;28;46408;-68
2022/10/28 11:50:08;;;;;;;10.43;4.77;;;21.90;45.40;;;;;;4965531;28;48156;-68
2022/10/28 11:52:46;;;;;;;9.43;3.27;;;21.80;46.60;;;;;;4967447;28;46408;-68
2022/10/28 11:55:27;;;;;;;7.93;3.30;;;21.60;47.30;;;;;;4982915;28;46425;-68
2022/10/28 11:58:31;;;;;;;7.47;2.60;;;21.60;47.70;;;;;;4984440;28;46612;-68
2022/10/28 12:01:17;;;;;;;10.60;3.47;;;21.50;46.90;;;;;;4966131;28;46555;-68
2022/10/28 12:04:18;;;;;;;5.50;2.00;;;21.40;48.20;;;;;;4965102;28;46507;-68
2022/10/28 12:07:00;;;;;;;12.03;2.53;;;21.40;48.30;;;;;;4965954;28;46442;-68
2022/10/28 12:09:59;;;;;;;8.57;2.30;;;21.30;47.70;;;;;;4960041;28;46474;-69
2022/10/28 12:12:53;;;;;;;7.23;2.00;;;21.20;48.60;;;;;;4961018;28;48730;-68
2022/10/28 12:15:46;;;;;;;5.90;2.00;;;21.20;48.30;;;;;;4982539;28;46296;-68
2022/10/28 12:18:18;;;;;;;6.57;2.43;;;21.00;48.50;;;;;;4984008;28;46593;-68
2022/10/28 12:21:01;;;;;;;11.20;2.40;;;20.90;46.80;;;;;;4965535;28;46604;-68
2022/10/28 12:23:30;;;;;;;8.90;2.70;;;20.90;48.30;;;;;;4967133;28;46211;-68
2022/10/28 12:25:58;;;;;;;7.37;2.30;;;20.80;48.30;;;;;;4982382;28;45954;-68
2022/10/28 12:28:26;;;;;;;9.43;2.77;;;20.70;48.20;;;;;;4983898;28;46396;-68
2022/10/28 12:30:53;;;;;;;9.03;2.50;;;20.80;47.30;;;;;;4980377;28;46464;-68
2022/10/28 12:33:41;;;;;;;14.30;3.07;;;20.80;48.40;;;;;;4965768;28;47830;-68
2022/10/28 12:36:06;;;;;;;11.60;2.40;;;20.80;48.30;;;;;;4955813;28;45735;-68
2022/10/28 12:38:44;;;;;;;6.93;2.60;;;20.90;48.50;;;;;;4966092;28;46421;-68
2022/10/28 12:41:26;;;;;;;9.53;2.47;;;20.90;47.40;;;;;;4964945;28;47331;-68
2022/10/28 12:44:03;;;;;;;7.20;2.30;;;21.00;47.50;;;;;;4979899;28;48891;-68
2022/10/28 12:46:47;;;;;;;8.40;2.30;;;21.00;47.70;;;;;;4960358;28;46390;-68
2022/10/28 12:49:45;;;;;;;7.90;2.57;;;21.00;46.10;;;;;;4965315;28;46334;-68
2022/10/28 12:52:25;;;;;;;5.93;2.00;;;21.10;46.70;;;;;;4964516;28;47064;-68
2022/10/28 12:54:54;;;;;;;5.23;2.20;;;21.10;46.20;;;;;;4981879;28;48299;-68
2022/10/28 12:57:22;;;;;;;8.63;2.00;;;21.10;46.40;;;;;;4965628;28;46248;-68
2022/10/28 12:59:58;;;;;;;7.93;2.40;;;21.20;44.80;;;;;;4979849;28;46484;-68
2022/10/28 13:02:36;;;;;;;10.00;2.97;;;21.20;45.70;;;;;;4964006;28;46639;-68
2022/10/28 13:05:03;;;;;;;7.23;2.57;;;21.20;45.50;;;;;;4982611;28;46540;-68
2022/10/28 13:07:38;;;;;;;11.57;2.40;;;21.20;45.30;;;;;;4964561;28;45917;-68
2022/10/28 13:10:29;;;;;;;11.70;2.43;;;21.20;45.50;;;;;;4964799;28;46243;-68